sensor_id;sensor_type;location;lat;lon;timestamp;pressure;altitude;pressure_sealevel;temperature;humidity
49377;BME280;35253;34.688;33.040;2022-10-16T00:00:43;100686.56;;;24.02;100.00
49377;BME280;35253;34.688;33.040;2022-10-16T00:03:09;100687.03;;;24.05;100.00
49377;BME280;35253;34.688;33.040;2022-10-16T00:05:38;100692.69;;;24.04;100.00
49377;BME280;35253;34.688;33.040;2022-10-16T00:08:04;100696.44;;;24.03;100.00
49377;BME280;35253;34.688;33.040;2022-10-16T00:10:29;100702.53;;;24.05;100.00
49377;BME280;35253;34.688;33.040;2022-10-16T00:12:55;100707.66;;;24.08;100.00
49377;BME280;35253;34.688;33.040;2022-10-16T00:15:20;100709.34;;;24.09;100.00
49377;BME280;35253;34.688;33.040;2022-10-16T00:17:46;100697.09;;;24.05;100.00
49377;BME280;35253;34.688;33.040;2022-10-16T00:20:11;100702.03;;;24.01;100.00
49377;BME280;35253;34.688;33.040;2022-10-16T00:22:36;100707.28;;;24.11;100.00
49377;BME280;35253;34.688;33.040;2022-10-16T00:25:02;100703.06;;;24.08;100.00
49377;BME280;35253;34.688;33.040;2022-10-16T00:27:28;100701.34;;;24.07;100.00
49377;BME280;35253;34.688;33.040;2022-10-16T00:29:53;100704.72;;;24.09;100.00
49377;BME280;35253;34.688;33.040;2022-10-16T00:32:19;100708.66;;;24.07;100.00
49377;BME280;35253;34.688;33.040;2022-10-16T00:34:44;100715.44;;;24.19;100.00
49377;BME280;35253;34.688;33.040;2022-10-16T00:37:10;100714.75;;;24.25;100.00
49377;BME280;35253;34.688;33.040;2022-10-16T00:39:36;100714.00;;;24.31;100.00
49377;BME280;35253;34.688;33.040;2022-10-16T00:42:01;100692.94;;;24.25;100.00
49377;BME280;35253;34.688;33.040;2022-10-16T00:47:12;100683.13;;;24.16;100.00
49377;BME280;35253;34.688;33.040;2022-10-16T00:49:39;100671.00;;;24.18;100.00
49377;BME280;35253;34.688;33.040;2022-10-16T00:52:04;100668.28;;;24.10;100.00
49377;BME280;35253;34.688;33.040;2022-10-16T00:54:31;100656.00;;;24.14;100.00
49377;BME280;35253;34.688;33.040;2022-10-16T00:56:58;100659.16;;;24.03;100.00
49377;BME280;35253;34.688;33.040;2022-10-16T01:01:51;100683.97;;;24.08;100.00
49377;BME280;35253;34.688;33.040;2022-10-16T01:04:16;100700.84;;;24.04;100.00
49377;BME280;35253;34.688;33.040;2022-10-16T01:06:43;100733.88;;;24.09;100.00
49377;BME280;35253;34.688;33.040;2022-10-16T01:09:20;100731.97;;;24.09;100.00
49377;BME280;35253;34.688;33.040;2022-10-16T01:17:01;100703.03;;;24.16;100.00
49377;BME280;35253;34.688;33.040;2022-10-16T01:22:01;100749.44;;;24.31;100.00
49377;BME280;35253;34.688;33.040;2022-10-16T01:24:33;100742.34;;;24.22;100.00
49377;BME280;35253;34.688;33.040;2022-10-16T01:27:21;100726.81;;;24.22;100.00
49377;BME280;35253;34.688;33.040;2022-10-16T01:29:54;100733.50;;;24.20;100.00
49377;BME280;35253;34.688;33.040;2022-10-16T01:32:40;100737.75;;;24.14;100.00
49377;BME280;35253;34.688;33.040;2022-10-16T01:40:27;100718.91;;;23.97;100.00
49377;BME280;35253;34.688;33.040;2022-10-16T01:45:42;100719.66;;;23.83;100.00
49377;BME280;35253;34.688;33.040;2022-10-16T01:48:09;100734.66;;;23.70;100.00
49377;BME280;35253;34.688;33.040;2022-10-16T01:50:37;100743.00;;;23.61;100.00
49377;BME280;35253;34.688;33.040;2022-10-16T01:53:04;100755.59;;;23.62;100.00
49377;BME280;35253;34.688;33.040;2022-10-16T01:55:32;100751.00;;;23.62;100.00
49377;BME280;35253;34.688;33.040;2022-10-16T01:57:59;100746.09;;;23.50;100.00
49377;BME280;35253;34.688;33.040;2022-10-16T02:00:26;100724.47;;;23.40;100.00
49377;BME280;35253;34.688;33.040;2022-10-16T02:02:52;100716.00;;;23.43;100.00
49377;BME280;35253;34.688;33.040;2022-10-16T02:07:43;100722.09;;;23.37;100.00
49377;BME280;35253;34.688;33.040;2022-10-16T02:10:09;100710.22;;;23.38;100.00
49377;BME280;35253;34.688;33.040;2022-10-16T02:12:36;100699.00;;;23.25;100.00
49377;BME280;35253;34.688;33.040;2022-10-16T02:15:04;100694.22;;;23.35;100.00
49377;BME280;35253;34.688;33.040;2022-10-16T02:17:30;100701.22;;;23.29;100.00
49377;BME280;35253;34.688;33.040;2022-10-16T02:19:55;100709.03;;;23.24;100.00
49377;BME280;35253;34.688;33.040;2022-10-16T02:22:22;100714.63;;;23.31;100.00
49377;BME280;35253;34.688;33.040;2022-10-16T02:24:57;100713.94;;;23.37;100.00
49377;BME280;35253;34.688;33.040;2022-10-16T02:27:33;100714.97;;;23.36;100.00
49377;BME280;35253;34.688;33.040;2022-10-16T02:32:38;100674.53;;;23.25;100.00
49377;BME280;35253;34.688;33.040;2022-10-16T02:35:05;100690.16;;;23.23;100.00
49377;BME280;35253;34.688;33.040;2022-10-16T02:37:31;100707.16;;;23.33;100.00
49377;BME280;35253;34.688;33.040;2022-10-16T02:39:57;100687.41;;;23.31;100.00
49377;BME280;35253;34.688;33.040;2022-10-16T02:42:33;100713.78;;;23.30;100.00
49377;BME280;35253;34.688;33.040;2022-10-16T02:44:59;100719.38;;;23.37;100.00
49377;BME280;35253;34.688;33.040;2022-10-16T02:47:25;100723.97;;;23.36;100.00
49377;BME280;35253;34.688;33.040;2022-10-16T02:49:50;100727.88;;;23.42;100.00
49377;BME280;35253;34.688;33.040;2022-10-16T02:52:15;100728.75;;;23.51;100.00
49377;BME280;35253;34.688;33.040;2022-10-16T02:54:41;100727.22;;;23.48;100.00
49377;BME280;35253;34.688;33.040;2022-10-16T02:57:06;100730.59;;;23.42;100.00
49377;BME280;35253;34.688;33.040;2022-10-16T02:59:32;100739.63;;;23.51;100.00
49377;BME280;35253;34.688;33.040;2022-10-16T03:01:57;100751.19;;;23.53;100.00
49377;BME280;35253;34.688;33.040;2022-10-16T03:04:22;100751.19;;;23.53;100.00
49377;BME280;35253;34.688;33.040;2022-10-16T03:06:48;100756.97;;;23.50;100.00
49377;BME280;35253;34.688;33.040;2022-10-16T03:09:13;100755.47;;;23.55;100.00
49377;BME280;35253;34.688;33.040;2022-10-16T03:11:39;100755.78;;;23.52;100.00
49377;BME280;35253;34.688;33.040;2022-10-16T03:14:04;100763.25;;;23.58;100.00
49377;BME280;35253;34.688;33.040;2022-10-16T03:16:30;100772.28;;;23.59;100.00
49377;BME280;35253;34.688;33.040;2022-10-16T03:18:55;100776.38;;;23.55;100.00
49377;BME280;35253;34.688;33.040;2022-10-16T03:21:21;100783.69;;;23.46;100.00
49377;BME280;35253;34.688;33.040;2022-10-16T03:23:46;100791.88;;;23.46;100.00
49377;BME280;35253;34.688;33.040;2022-10-16T03:26:12;100796.97;;;23.49;100.00
49377;BME280;35253;34.688;33.040;2022-10-16T03:28:37;100795.41;;;23.39;100.00
49377;BME280;35253;34.688;33.040;2022-10-16T03:31:03;100808.81;;;23.40;100.00
49377;BME280;35253;34.688;33.040;2022-10-16T03:33:28;100806.09;;;23.40;100.00
49377;BME280;35253;34.688;33.040;2022-10-16T03:35:54;100789.47;;;23.43;100.00
49377;BME280;35253;34.688;33.040;2022-10-16T03:38:20;100752.75;;;23.47;100.00
49377;BME280;35253;34.688;33.040;2022-10-16T03:40:46;100730.63;;;23.50;100.00
49377;BME280;35253;34.688;33.040;2022-10-16T03:43:11;100727.72;;;23.44;100.00
49377;BME280;35253;34.688;33.040;2022-10-16T03:45:37;100734.19;;;23.43;100.00
49377;BME280;35253;34.688;33.040;2022-10-16T03:48:02;100730.28;;;23.45;100.00
49377;BME280;35253;34.688;33.040;2022-10-16T03:50:28;100747.97;;;23.49;100.00
49377;BME280;35253;34.688;33.040;2022-10-16T03:52:54;100743.53;;;23.40;100.00
49377;BME280;35253;34.688;33.040;2022-10-16T03:55:19;100741.16;;;23.45;100.00
49377;BME280;35253;34.688;33.040;2022-10-16T03:57:45;100738.44;;;23.37;100.00
49377;BME280;35253;34.688;33.040;2022-10-16T04:00:10;100732.28;;;23.35;100.00
49377;BME280;35253;34.688;33.040;2022-10-16T04:02:36;100742.50;;;23.41;100.00
49377;BME280;35253;34.688;33.040;2022-10-16T04:05:02;100745.56;;;23.62;100.00
49377;BME280;35253;34.688;33.040;2022-10-16T04:07:28;100750.31;;;23.68;100.00
49377;BME280;35253;34.688;33.040;2022-10-16T04:09:53;100751.81;;;23.79;100.00
49377;BME280;35253;34.688;33.040;2022-10-16T04:12:19;100748.25;;;23.87;100.00
49377;BME280;35253;34.688;33.040;2022-10-16T04:14:45;100756.75;;;23.84;100.00
49377;BME280;35253;34.688;33.040;2022-10-16T04:17:10;100747.22;;;23.79;100.00
49377;BME280;35253;34.688;33.040;2022-10-16T04:19:36;100749.63;;;23.83;100.00
49377;BME280;35253;34.688;33.040;2022-10-16T04:22:01;100760.31;;;23.84;100.00
49377;BME280;35253;34.688;33.040;2022-10-16T04:24:26;100759.44;;;24.00;100.00
49377;BME280;35253;34.688;33.040;2022-10-16T04:26:52;100762.63;;;24.11;100.00
49377;BME280;35253;34.688;33.040;2022-10-16T04:29:17;100758.38;;;24.17;100.00
49377;BME280;35253;34.688;33.040;2022-10-16T04:31:43;100766.88;;;24.22;100.00
49377;BME280;35253;34.688;33.040;2022-10-16T04:34:08;100793.28;;;24.21;100.00
49377;BME280;35253;34.688;33.040;2022-10-16T04:36:34;100794.66;;;24.17;100.00
49377;BME280;35253;34.688;33.040;2022-10-16T04:38:59;100773.34;;;24.21;100.00
49377;BME280;35253;34.688;33.040;2022-10-16T04:41:24;100768.75;;;24.21;100.00
49377;BME280;35253;34.688;33.040;2022-10-16T04:43:50;100752.38;;;24.30;100.00
49377;BME280;35253;34.688;33.040;2022-10-16T04:46:15;100742.66;;;24.27;100.00
49377;BME280;35253;34.688;33.040;2022-10-16T04:48:41;100762.25;;;24.31;100.00
49377;BME280;35253;34.688;33.040;2022-10-16T04:51:06;100775.66;;;24.32;100.00
49377;BME280;35253;34.688;33.040;2022-10-16T04:53:32;100800.88;;;24.34;100.00
49377;BME280;35253;34.688;33.040;2022-10-16T04:55:58;100799.88;;;24.35;100.00
49377;BME280;35253;34.688;33.040;2022-10-16T04:58:23;100786.56;;;24.32;100.00
49377;BME280;35253;34.688;33.040;2022-10-16T05:00:49;100789.28;;;24.32;100.00
49377;BME280;35253;34.688;33.040;2022-10-16T05:03:14;100791.69;;;24.35;100.00
49377;BME280;35253;34.688;33.040;2022-10-16T05:05:43;100775.34;;;24.35;100.00
49377;BME280;35253;34.688;33.040;2022-10-16T05:08:09;100785.50;;;24.41;100.00
49377;BME280;35253;34.688;33.040;2022-10-16T05:10:35;100793.38;;;24.36;100.00
49377;BME280;35253;34.688;33.040;2022-10-16T05:13:00;100801.22;;;24.31;100.00
49377;BME280;35253;34.688;33.040;2022-10-16T05:15:26;100791.69;;;24.35;100.00
49377;BME280;35253;34.688;33.040;2022-10-16T05:17:55;100797.47;;;24.32;100.00
49377;BME280;35253;34.688;33.040;2022-10-16T05:20:21;100818.25;;;24.33;100.00
49377;BME280;35253;34.688;33.040;2022-10-16T05:22:46;100824.56;;;24.34;100.00
49377;BME280;35253;34.688;33.040;2022-10-16T05:25:11;100831.53;;;24.36;100.00
49377;BME280;35253;34.688;33.040;2022-10-16T05:27:37;100841.06;;;24.32;100.00
49377;BME280;35253;34.688;33.040;2022-10-16T05:30:02;100860.50;;;24.29;100.00
49377;BME280;35253;34.688;33.040;2022-10-16T05:32:28;100861.19;;;24.15;100.00
49377;BME280;35253;34.688;33.040;2022-10-16T05:34:53;100875.34;;;24.10;100.00
49377;BME280;35253;34.688;33.040;2022-10-16T05:37:19;100876.91;;;23.89;100.00
49377;BME280;35253;34.688;33.040;2022-10-16T05:39:44;100900.03;;;23.93;100.00
49377;BME280;35253;34.688;33.040;2022-10-16T05:42:10;100913.81;;;23.83;100.00
49377;BME280;35253;34.688;33.040;2022-10-16T05:44:35;100995.34;;;23.85;100.00
49377;BME280;35253;34.688;33.040;2022-10-16T05:47:01;101041.22;;;22.36;100.00
49377;BME280;35253;34.688;33.040;2022-10-16T05:49:26;101038.44;;;21.92;100.00
49377;BME280;35253;34.688;33.040;2022-10-16T05:51:52;101035.59;;;21.67;100.00
49377;BME280;35253;34.688;33.040;2022-10-16T05:54:17;101042.81;;;21.58;100.00
49377;BME280;35253;34.688;33.040;2022-10-16T05:56:43;101020.78;;;21.61;100.00
49377;BME280;35253;34.688;33.040;2022-10-16T05:59:08;100998.34;;;21.41;100.00
49377;BME280;35253;34.688;33.040;2022-10-16T06:01:34;101052.16;;;21.19;100.00
49377;BME280;35253;34.688;33.040;2022-10-16T06:04:00;101107.94;;;20.65;100.00
49377;BME280;35253;34.688;33.040;2022-10-16T06:06:26;101130.75;;;20.53;100.00
49377;BME280;35253;34.688;33.040;2022-10-16T06:08:52;101124.91;;;20.38;100.00
49377;BME280;35253;34.688;33.040;2022-10-16T06:11:22;101110.22;;;20.60;100.00
49377;BME280;35253;34.688;33.040;2022-10-16T06:13:55;101106.22;;;20.54;100.00
49377;BME280;35253;34.688;33.040;2022-10-16T06:16:25;101090.25;;;20.61;100.00
49377;BME280;35253;34.688;33.040;2022-10-16T06:18:51;101078.53;;;20.70;100.00
49377;BME280;35253;34.688;33.040;2022-10-16T06:21:18;101044.44;;;20.67;100.00
49377;BME280;35253;34.688;33.040;2022-10-16T06:23:44;101041.31;;;20.72;100.00
49377;BME280;35253;34.688;33.040;2022-10-16T06:26:14;101033.72;;;20.76;100.00
49377;BME280;35253;34.688;33.040;2022-10-16T06:28:40;101046.44;;;20.75;100.00
49377;BME280;35253;34.688;33.040;2022-10-16T06:31:05;101056.31;;;20.66;100.00
49377;BME280;35253;34.688;33.040;2022-10-16T06:33:31;101050.16;;;20.74;100.00
49377;BME280;35253;34.688;33.040;2022-10-16T06:36:03;101045.75;;;20.63;100.00
49377;BME280;35253;34.688;33.040;2022-10-16T06:38:29;101058.59;;;20.71;100.00
49377;BME280;35253;34.688;33.040;2022-10-16T06:40:55;101067.09;;;20.76;100.00
49377;BME280;35253;34.688;33.040;2022-10-16T06:43:20;101075.09;;;20.78;100.00
49377;BME280;35253;34.688;33.040;2022-10-16T06:45:52;101085.63;;;20.90;100.00
49377;BME280;35253;34.688;33.040;2022-10-16T06:48:18;101093.88;;;20.98;100.00
49377;BME280;35253;34.688;33.040;2022-10-16T06:50:44;101107.59;;;20.87;100.00
49377;BME280;35253;34.688;33.040;2022-10-16T06:53:09;101122.69;;;20.90;100.00
49377;BME280;35253;34.688;33.040;2022-10-16T06:55:34;101154.13;;;20.83;100.00
49377;BME280;35253;34.688;33.040;2022-10-16T06:58:00;101185.78;;;20.73;100.00
49377;BME280;35253;34.688;33.040;2022-10-16T07:00:25;101186.63;;;20.54;100.00
49377;BME280;35253;34.688;33.040;2022-10-16T07:02:51;101193.34;;;20.50;100.00
49377;BME280;35253;34.688;33.040;2022-10-16T07:05:16;101196.28;;;20.27;100.00
49377;BME280;35253;34.688;33.040;2022-10-16T07:07:41;101197.41;;;20.15;100.00
49377;BME280;35253;34.688;33.040;2022-10-16T07:10:07;101199.06;;;19.88;100.00
49377;BME280;35253;34.688;33.040;2022-10-16T07:12:33;101182.06;;;19.76;100.00
49377;BME280;35253;34.688;33.040;2022-10-16T07:14:58;101162.63;;;20.20;100.00
49377;BME280;35253;34.688;33.040;2022-10-16T07:17:24;101145.66;;;20.18;100.00
49377;BME280;35253;34.688;33.040;2022-10-16T07:19:49;101134.28;;;20.24;100.00
49377;BME280;35253;34.688;33.040;2022-10-16T07:22:17;101154.94;;;20.25;100.00
49377;BME280;35253;34.688;33.040;2022-10-16T07:24:43;101160.91;;;20.19;100.00
49377;BME280;35253;34.688;33.040;2022-10-16T07:27:09;101179.72;;;20.11;100.00
49377;BME280;35253;34.688;33.040;2022-10-16T07:29:34;101180.25;;;20.05;100.00
49377;BME280;35253;34.688;33.040;2022-10-16T07:32:01;101182.25;;;19.94;100.00
49377;BME280;35253;34.688;33.040;2022-10-16T07:34:26;101175.72;;;19.96;100.00
49377;BME280;35253;34.688;33.040;2022-10-16T07:36:52;101181.53;;;20.01;100.00
49377;BME280;35253;34.688;33.040;2022-10-16T07:39:18;101192.78;;;19.97;100.00
49377;BME280;35253;34.688;33.040;2022-10-16T07:41:43;101205.25;;;19.69;100.00
49377;BME280;35253;34.688;33.040;2022-10-16T07:44:08;101221.28;;;19.91;100.00
49377;BME280;35253;34.688;33.040;2022-10-16T07:46:34;101221.97;;;19.93;100.00
49377;BME280;35253;34.688;33.040;2022-10-16T07:49:01;101212.03;;;19.94;100.00
49377;BME280;35253;34.688;33.040;2022-10-16T07:51:26;101213.78;;;20.04;100.00
49377;BME280;35253;34.688;33.040;2022-10-16T07:53:52;101204.78;;;20.04;100.00
49377;BME280;35253;34.688;33.040;2022-10-16T07:56:18;101174.88;;;19.96;100.00
49377;BME280;35253;34.688;33.040;2022-10-16T07:58:44;101187.97;;;20.00;100.00
49377;BME280;35253;34.688;33.040;2022-10-16T08:01:11;101190.09;;;20.06;100.00
49377;BME280;35253;34.688;33.040;2022-10-16T08:03:38;101177.03;;;20.11;100.00
49377;BME280;35253;34.688;33.040;2022-10-16T08:06:03;101171.16;;;20.06;100.00
49377;BME280;35253;34.688;33.040;2022-10-16T08:08:29;101161.59;;;20.02;100.00
49377;BME280;35253;34.688;33.040;2022-10-16T08:10:55;101167.75;;;20.04;100.00
49377;BME280;35253;34.688;33.040;2022-10-16T08:13:21;101178.59;;;20.04;100.00
49377;BME280;35253;34.688;33.040;2022-10-16T08:15:46;101184.25;;;20.01;100.00
49377;BME280;35253;34.688;33.040;2022-10-16T08:18:12;101187.41;;;20.06;100.00
49377;BME280;35253;34.688;33.040;2022-10-16T08:20:38;101176.31;;;20.09;100.00
49377;BME280;35253;34.688;33.040;2022-10-16T08:23:04;101144.50;;;20.02;100.00
49377;BME280;35253;34.688;33.040;2022-10-16T08:25:30;101143.78;;;19.90;100.00
49377;BME280;35253;34.688;33.040;2022-10-16T08:27:57;101176.09;;;19.82;100.00
49377;BME280;35253;34.688;33.040;2022-10-16T08:30:23;101223.19;;;19.70;100.00
49377;BME280;35253;34.688;33.040;2022-10-16T08:32:49;101232.59;;;19.75;100.00
49377;BME280;35253;34.688;33.040;2022-10-16T08:35:15;101247.31;;;19.83;100.00
49377;BME280;35253;34.688;33.040;2022-10-16T08:37:40;101268.16;;;19.61;100.00
49377;BME280;35253;34.688;33.040;2022-10-16T08:40:06;101295.00;;;19.53;100.00
49377;BME280;35253;34.688;33.040;2022-10-16T08:50:32;101304.84;;;19.22;100.00
49377;BME280;35253;34.688;33.040;2022-10-16T08:53:01;101306.66;;;19.54;100.00
49377;BME280;35253;34.688;33.040;2022-10-16T08:55:41;101304.44;;;19.59;100.00
49377;BME280;35253;34.688;33.040;2022-10-16T08:58:14;101290.25;;;19.46;100.00
49377;BME280;35253;34.688;33.040;2022-10-16T09:00:40;101271.34;;;19.76;100.00
49377;BME280;35253;34.688;33.040;2022-10-16T09:10:59;101211.53;;;19.79;100.00
49377;BME280;35253;34.688;33.040;2022-10-16T09:13:40;101203.53;;;19.68;100.00
49377;BME280;35253;34.688;33.040;2022-10-16T09:16:14;101211.28;;;19.82;100.00
49377;BME280;35253;34.688;33.040;2022-10-16T09:21:21;101190.25;;;19.95;100.00
49377;BME280;35253;34.688;33.040;2022-10-16T09:23:47;101188.22;;;19.97;100.00
49377;BME280;35253;34.688;33.040;2022-10-16T09:26:13;101177.16;;;20.00;100.00
49377;BME280;35253;34.688;33.040;2022-10-16T09:28:39;101159.06;;;20.10;100.00
49377;BME280;35253;34.688;33.040;2022-10-16T09:31:05;101159.38;;;20.17;100.00
49377;BME280;35253;34.688;33.040;2022-10-16T09:33:35;101146.44;;;20.30;100.00
49377;BME280;35253;34.688;33.040;2022-10-16T09:36:02;101143.72;;;20.30;100.00
49377;BME280;35253;34.688;33.040;2022-10-16T09:38:29;101141.59;;;20.34;100.00
49377;BME280;35253;34.688;33.040;2022-10-16T09:41:02;101131.88;;;20.21;100.00
49377;BME280;35253;34.688;33.040;2022-10-16T09:43:51;101121.66;;;20.44;100.00
49377;BME280;35253;34.688;33.040;2022-10-16T09:46:30;101104.97;;;20.49;100.00
49377;BME280;35253;34.688;33.040;2022-10-16T09:48:59;101100.97;;;20.53;100.00
49377;BME280;35253;34.688;33.040;2022-10-16T09:51:26;101068.59;;;20.61;100.00
49377;BME280;35253;34.688;33.040;2022-10-16T09:53:59;101050.91;;;20.47;100.00
49377;BME280;35253;34.688;33.040;2022-10-16T09:56:30;101047.78;;;20.52;100.00
49377;BME280;35253;34.688;33.040;2022-10-16T09:58:59;101008.00;;;20.52;100.00
49377;BME280;35253;34.688;33.040;2022-10-16T10:01:27;101008.97;;;20.61;100.00
49377;BME280;35253;34.688;33.040;2022-10-16T10:03:56;100997.94;;;20.72;100.00
49377;BME280;35253;34.688;33.040;2022-10-16T10:06:30;100995.34;;;20.80;100.00
49377;BME280;35253;34.688;33.040;2022-10-16T10:11:48;101009.50;;;20.74;100.00
49377;BME280;35253;34.688;33.040;2022-10-16T10:14:16;101017.75;;;20.82;100.00
49377;BME280;35253;34.688;33.040;2022-10-16T10:16:43;101023.28;;;20.90;100.00
49377;BME280;35253;34.688;33.040;2022-10-16T10:19:15;101037.03;;;21.06;100.00
49377;BME280;35253;34.688;33.040;2022-10-16T10:21:40;101051.38;;;20.89;100.00
49377;BME280;35253;34.688;33.040;2022-10-16T10:24:10;101061.19;;;21.00;100.00
49377;BME280;35253;34.688;33.040;2022-10-16T10:26:36;101040.31;;;21.10;100.00
49377;BME280;35253;34.688;33.040;2022-10-16T10:29:14;101028.66;;;21.00;100.00
49377;BME280;35253;34.688;33.040;2022-10-16T10:36:37;101010.78;;;21.07;100.00
49377;BME280;35253;34.688;33.040;2022-10-16T10:51:56;100909.44;;;21.88;100.00
49377;BME280;35253;34.688;33.040;2022-10-16T10:56:57;100887.53;;;22.08;100.00
49377;BME280;35253;34.688;33.040;2022-10-16T11:01:55;100873.34;;;22.22;100.00
49377;BME280;35253;34.688;33.040;2022-10-16T11:06:59;100852.03;;;22.35;100.00
49377;BME280;35253;34.688;33.040;2022-10-16T11:09:44;100827.63;;;22.43;100.00
49377;BME280;35253;34.688;33.040;2022-10-16T11:17:17;100816.38;;;22.38;100.00
49377;BME280;35253;34.688;33.040;2022-10-16T11:22:27;100817.81;;;22.50;100.00
49377;BME280;35253;34.688;33.040;2022-10-16T11:25:02;100813.84;;;22.70;100.00
49377;BME280;35253;34.688;33.040;2022-10-16T11:27:54;100822.34;;;22.75;100.00
49377;BME280;35253;34.688;33.040;2022-10-16T11:30:24;100814.72;;;22.87;100.00
49377;BME280;35253;34.688;33.040;2022-10-16T11:35:25;100826.09;;;22.90;100.00
49377;BME280;35253;34.688;33.040;2022-10-16T11:37:55;100838.03;;;22.98;100.00
49377;BME280;35253;34.688;33.040;2022-10-16T11:43:02;100834.47;;;23.13;100.00
49377;BME280;35253;34.688;33.040;2022-10-16T11:45:36;100831.59;;;23.23;100.00
49377;BME280;35253;34.688;33.040;2022-10-16T11:53:19;100842.56;;;23.55;100.00
49377;BME280;35253;34.688;33.040;2022-10-16T11:55:47;100839.81;;;23.71;100.00
49377;BME280;35253;34.688;33.040;2022-10-16T12:00:44;100837.06;;;23.88;100.00
49377;BME280;35253;34.688;33.040;2022-10-16T12:05:58;100820.47;;;24.68;100.00
49377;BME280;35253;34.688;33.040;2022-10-16T12:08:25;100812.81;;;25.03;100.00
49377;BME280;35253;34.688;33.040;2022-10-16T12:10:51;100810.88;;;25.34;100.00
49377;BME280;35253;34.688;33.040;2022-10-16T12:13:28;100810.88;;;25.34;100.00
49377;BME280;35253;34.688;33.040;2022-10-16T12:16:03;100816.56;;;25.47;100.00
49377;BME280;35253;34.688;33.040;2022-10-16T12:18:29;100812.09;;;25.54;100.00
49377;BME280;35253;34.688;33.040;2022-10-16T12:20:57;100814.84;;;25.46;100.00
49377;BME280;35253;34.688;33.040;2022-10-16T12:23:54;100810.31;;;25.16;100.00
49377;BME280;35253;34.688;33.040;2022-10-16T12:26:28;100807.97;;;25.13;100.00
49377;BME280;35253;34.688;33.040;2022-10-16T12:28:55;100815.84;;;25.08;100.00
49377;BME280;35253;34.688;33.040;2022-10-16T12:31:21;100813.75;;;25.10;100.00
49377;BME280;35253;34.688;33.040;2022-10-16T12:36:30;100807.78;;;24.92;100.00
49377;BME280;35253;34.688;33.040;2022-10-16T12:38:56;100800.84;;;24.73;100.00
49377;BME280;35253;34.688;33.040;2022-10-16T12:41:26;100796.09;;;24.67;100.00
49377;BME280;35253;34.688;33.040;2022-10-16T12:43:52;100792.56;;;24.58;100.00
49377;BME280;35253;34.688;33.040;2022-10-16T12:48:43;100785.66;;;24.48;100.00
49377;BME280;35253;34.688;33.040;2022-10-16T12:53:59;100780.22;;;24.70;100.00
49377;BME280;35253;34.688;33.040;2022-10-16T12:56:27;100774.13;;;24.68;100.00
49377;BME280;35253;34.688;33.040;2022-10-16T12:59:00;100771.50;;;24.75;100.00
49377;BME280;35253;34.688;33.040;2022-10-16T13:09:19;100788.72;;;24.76;100.00
49377;BME280;35253;34.688;33.040;2022-10-16T13:17:14;100803.63;;;24.65;100.00
49377;BME280;35253;34.688;33.040;2022-10-16T13:22:21;100802.41;;;24.67;100.00
49377;BME280;35253;34.688;33.040;2022-10-16T13:25:02;100809.94;;;24.65;100.00
49377;BME280;35253;34.688;33.040;2022-10-16T13:27:41;100791.41;;;24.61;100.00
49377;BME280;35253;34.688;33.040;2022-10-16T13:30:15;100797.19;;;24.58;100.00
49377;BME280;35253;34.688;33.040;2022-10-16T13:32:48;100809.31;;;24.55;100.00
49377;BME280;35253;34.688;33.040;2022-10-16T13:35:28;100812.81;;;24.33;100.00
49377;BME280;35253;34.688;33.040;2022-10-16T13:38:04;100813.16;;;24.14;100.00
49377;BME280;35253;34.688;33.040;2022-10-16T13:40:30;100808.56;;;24.22;100.00
49377;BME280;35253;34.688;33.040;2022-10-16T13:42:55;100801.09;;;24.24;100.00
49377;BME280;35253;34.688;33.040;2022-10-16T13:45:22;100808.72;;;24.29;100.00
49377;BME280;35253;34.688;33.040;2022-10-16T13:47:48;100817.63;;;24.07;100.00
49377;BME280;35253;34.688;33.040;2022-10-16T13:50:15;100821.88;;;24.01;100.00
49377;BME280;35253;34.688;33.040;2022-10-16T13:52:41;100819.84;;;24.03;100.00
49377;BME280;35253;34.688;33.040;2022-10-16T13:55:14;100821.69;;;24.11;100.00
49377;BME280;35253;34.688;33.040;2022-10-16T13:57:40;100824.09;;;24.06;100.00
49377;BME280;35253;34.688;33.040;2022-10-16T14:00:22;100824.28;;;24.04;100.00
49377;BME280;35253;34.688;33.040;2022-10-16T14:02:58;100824.13;;;23.90;100.00
49377;BME280;35253;34.688;33.040;2022-10-16T14:05:26;100813.41;;;23.88;100.00
49377;BME280;35253;34.688;33.040;2022-10-16T14:07:53;100791.94;;;23.93;100.00
49377;BME280;35253;34.688;33.040;2022-10-16T14:10:23;100796.75;;;23.91;100.00
49377;BME280;35253;34.688;33.040;2022-10-16T14:15:21;100784.50;;;23.79;100.00
49377;BME280;35253;34.688;33.040;2022-10-16T14:17:48;100776.50;;;23.77;100.00
49377;BME280;35253;34.688;33.040;2022-10-16T14:20:15;100757.13;;;23.72;100.00
49377;BME280;35253;34.688;33.040;2022-10-16T14:22:41;100751.69;;;23.64;100.00
49377;BME280;35253;34.688;33.040;2022-10-16T14:27:55;100729.94;;;23.56;100.00
49377;BME280;35253;34.688;33.040;2022-10-16T14:30:21;100726.19;;;23.49;100.00
49377;BME280;35253;34.688;33.040;2022-10-16T14:33:00;100746.44;;;23.47;100.00
49377;BME280;35253;34.688;33.040;2022-10-16T14:35:36;100762.25;;;23.43;100.00
49377;BME280;35253;34.688;33.040;2022-10-16T14:38:03;100771.25;;;23.19;100.00